createdAt,value
2022-12-03T00:01:57.064Z,43.8
2022-12-03T00:03:59.116Z,38.9
2022-12-03T00:06:04.043Z,42.8
2022-12-03T00:08:05.990Z,40.4
2022-12-03T00:10:07.811Z,38.5
2022-12-03T00:11:10.353Z,37.4
2022-12-03T00:13:12.255Z,41.5
2022-12-03T00:15:14.114Z,38.9
2022-12-03T00:17:16.008Z,34.3
2022-12-03T00:19:21.113Z,47.5
2022-12-03T00:21:24.817Z,39.9
2022-12-03T00:23:24.887Z,47.2
2022-12-03T00:25:26.761Z,49.8
2022-12-03T00:27:28.629Z,42
2022-12-03T00:29:30.510Z,45.1
2022-12-03T00:31:32.472Z,35.9
2022-12-03T00:33:37.540Z,37.3
2022-12-03T00:35:39.441Z,31.6
2022-12-03T00:37:41.289Z,35.5
2022-12-03T00:39:43.172Z,34.3
2022-12-03T00:41:45.058Z,39.8
2022-12-03T00:43:46.935Z,42.2
2022-12-03T00:45:48.829Z,52.8
2022-12-03T00:47:53.906Z,37.9
2022-12-03T00:49:55.795Z,44.5
2022-12-03T00:51:57.669Z,37.3
2022-12-03T00:53:59.577Z,41.8
2022-12-03T00:56:01.454Z,42.1
2022-12-03T00:58:03.341Z,36.4
2022-12-03T01:00:05.228Z,44.4
2022-12-03T01:02:10.438Z,43.1
2022-12-03T01:04:12.238Z,43.3
2022-12-03T01:06:14.082Z,43.2
2022-12-03T01:07:16.614Z,38.5
2022-12-03T01:09:18.511Z,38.2
2022-12-03T01:13:22.287Z,41.6
2022-12-03T01:15:27.362Z,46.1
2022-12-03T01:17:29.257Z,44
2022-12-03T01:19:31.128Z,40
2022-12-03T01:21:32.990Z,42.5
2022-12-03T01:23:34.899Z,38
2022-12-03T01:25:36.766Z,45.9
2022-12-03T01:27:38.656Z,42.8
2022-12-03T01:29:43.774Z,51.3
2022-12-03T01:31:45.732Z,43.5
2022-12-03T01:33:47.523Z,36.4
2022-12-03T01:35:49.379Z,41.7
2022-12-03T01:37:51.277Z,38
2022-12-03T01:39:53.154Z,47.5
2022-12-03T01:41:55.069Z,50
2022-12-03T01:44:00.214Z,47.6
2022-12-03T01:46:02.062Z,43
2022-12-03T01:48:03.925Z,37.1
2022-12-03T01:50:05.830Z,40.9
2022-12-03T01:52:07.696Z,40
2022-12-03T01:58:16.585Z,43.4
2022-12-03T02:00:18.521Z,42
2022-12-03T02:02:20.359Z,34.7
2022-12-03T02:04:49.205Z,41.1
2022-12-03T02:08:52.988Z,42.5
2022-12-03T02:10:58.098Z,43.7
2022-12-03T02:19:05.661Z,41.2
2022-12-03T02:21:07.544Z,38.8
2022-12-03T02:23:09.431Z,42.6
2022-12-03T02:25:14.525Z,41.1
2022-12-03T02:27:16.410Z,40.7
2022-12-03T02:29:18.315Z,40.5
2022-12-03T02:31:20.232Z,36.9
2022-12-03T02:35:23.908Z,44.2
2022-12-03T02:37:25.788Z,44.6
2022-12-03T02:39:30.903Z,34.9
2022-12-03T02:41:32.804Z,43.1
2022-12-03T02:43:34.668Z,52.2
2022-12-03T02:45:36.559Z,52.4
2022-12-03T02:47:38.428Z,35.8
2022-12-03T02:49:40.463Z,44.2
2022-12-03T02:51:42.232Z,38.5
2022-12-03T02:53:47.320Z,45.7
2022-12-03T02:55:49.213Z,43.2
2022-12-03T02:57:51.065Z,45.9
2022-12-03T02:58:53.654Z,36.5
2022-12-03T03:00:55.613Z,44.9
2022-12-03T03:02:57.422Z,39.9
2022-12-03T03:04:59.297Z,39.5
2022-12-03T03:07:04.431Z,40.4
2022-12-03T03:09:06.298Z,49.7
2022-12-03T03:11:08.207Z,37.5
2022-12-03T03:13:10.109Z,43.7
2022-12-03T03:15:11.991Z,57.3
2022-12-03T03:17:13.882Z,40.4
2022-12-03T03:19:15.757Z,39.7
2022-12-03T03:21:20.900Z,43.5
2022-12-03T03:23:22.798Z,45.8
2022-12-03T03:25:24.771Z,37.5
2022-12-03T03:27:26.549Z,38.4
2022-12-03T03:29:28.433Z,41.1
2022-12-03T03:33:32.218Z,43
2022-12-03T03:35:37.317Z,44.7
2022-12-03T03:37:39.212Z,46.9
2022-12-03T03:39:41.113Z,36.3
2022-12-03T03:41:43.035Z,42.1
2022-12-03T03:43:44.913Z,58.4
2022-12-03T03:45:46.919Z,41.4
2022-12-03T03:47:48.672Z,35.8
2022-12-03T03:49:53.771Z,45
2022-12-03T03:51:55.650Z,47.2
2022-12-03T03:53:57.536Z,52.3
2022-12-03T03:55:00.130Z,49.3
2022-12-03T03:57:01.990Z,51.4
2022-12-03T03:59:03.884Z,54.8
2022-12-03T04:01:05.817Z,46.4
2022-12-03T04:03:10.904Z,46
2022-12-03T04:05:12.798Z,54.5
2022-12-03T04:07:14.650Z,41.8
2022-12-03T04:09:16.565Z,50.3
2022-12-03T04:11:18.473Z,48.9
2022-12-03T04:13:20.356Z,53.4
2022-12-03T04:15:22.263Z,44.7
2022-12-03T04:17:27.391Z,48.3
2022-12-03T04:19:29.247Z,47.3
2022-12-03T04:23:33.057Z,53.9
2022-12-03T04:25:34.925Z,44.2
2022-12-03T04:27:36.813Z,52.4
2022-12-03T04:29:38.724Z,48.5
2022-12-03T04:31:43.794Z,45.2
2022-12-03T04:35:47.641Z,51.9
2022-12-03T04:37:49.453Z,48.7
2022-12-03T04:39:51.366Z,52
2022-12-03T04:41:53.278Z,46.3
2022-12-03T04:43:55.140Z,53.6
2022-12-03T04:46:00.282Z,57.8
2022-12-03T04:48:02.128Z,42
2022-12-03T04:50:04.040Z,45.5
2022-12-03T04:51:06.596Z,43.5
2022-12-03T04:53:08.454Z,41.2
2022-12-03T04:55:10.353Z,51
2022-12-03T04:57:12.255Z,59.8
2022-12-03T04:59:17.384Z,41.8
2022-12-03T05:01:19.373Z,49
2022-12-03T05:03:21.119Z,43.1
2022-12-03T05:05:23.027Z,39.9
2022-12-03T05:07:25.016Z,40
2022-12-03T05:09:26.790Z,49.1
2022-12-03T05:11:28.664Z,45.6
2022-12-03T05:13:33.794Z,51.8
2022-12-03T05:15:35.667Z,39.7
2022-12-03T05:17:37.585Z,42.2
2022-12-03T05:19:39.443Z,53.5
2022-12-03T05:21:41.349Z,44.7
2022-12-03T05:23:43.227Z,40.2
2022-12-03T05:25:45.095Z,38.7
2022-12-03T05:27:50.244Z,43.2
2022-12-03T05:29:52.127Z,46.5
2022-12-03T05:31:54.010Z,45
2022-12-03T05:33:55.869Z,35.4
2022-12-03T05:35:57.763Z,53.2
2022-12-03T05:37:59.670Z,42.6
2022-12-03T05:40:01.543Z,46.3
2022-12-03T05:50:42.694Z,40.3
2022-12-03T05:52:44.515Z,38.2
2022-12-03T05:58:53.439Z,45.2
2022-12-03T06:09:06.103Z,46.3
2022-12-03T06:15:11.701Z,36.8
2022-12-03T06:17:13.597Z,37.1
2022-12-03T06:19:15.470Z,40.5
2022-12-03T06:21:17.373Z,47.8
2022-12-03T06:23:22.471Z,43.1
2022-12-03T06:25:24.358Z,41.8
2022-12-03T06:27:26.229Z,41
2022-12-03T06:29:28.107Z,45.6
2022-12-03T06:31:30.128Z,38.8
2022-12-03T06:33:31.883Z,52.2
2022-12-03T06:35:33.755Z,48.8
2022-12-03T06:37:38.846Z,41.5
2022-12-03T06:39:40.741Z,51.3
2022-12-03T06:41:42.594Z,54.5
2022-12-03T06:42:45.122Z,40.6
2022-12-03T06:44:47.020Z,44.9
2022-12-03T06:46:48.965Z,46.1
2022-12-03T06:52:57.728Z,53.5
2022-12-03T06:54:59.612Z,50.8
2022-12-03T06:57:01.521Z,44.2
2022-12-03T06:59:03.402Z,41.7
2022-12-03T07:01:05.281Z,54
2022-12-03T07:03:07.161Z,44.4
2022-12-03T07:05:12.225Z,46.6
2022-12-03T07:07:14.127Z,42.4
2022-12-03T07:09:16.028Z,43
2022-12-03T07:11:18.065Z,51.6
2022-12-03T07:13:19.757Z,49.5
2022-12-03T07:15:21.647Z,49.6
2022-12-03T07:17:23.546Z,40
2022-12-03T07:19:32.489Z,46.4
2022-12-03T07:21:30.551Z,42.4
2022-12-03T07:23:32.394Z,47.8
2022-12-03T07:25:34.289Z,50.1
2022-12-03T07:27:36.156Z,38.9
2022-12-03T07:29:38.072Z,45.6
2022-12-03T07:31:40.021Z,49.8
2022-12-03T07:33:45.061Z,51.5
2022-12-03T07:35:46.930Z,18.4
2022-12-03T07:37:48.831Z,45.2
2022-12-03T07:40:53.250Z,59.7
2022-12-03T07:42:55.126Z,55.1
2022-12-03T07:44:57.008Z,44.4
2022-12-03T07:49:04.026Z,63.3
2022-12-03T07:53:07.747Z,37.7
2022-12-03T07:55:09.607Z,46.7
2022-12-03T07:57:11.520Z,58.9
2022-12-03T07:59:13.405Z,47.6
2022-12-03T08:05:22.238Z,47.4
2022-12-03T08:07:24.147Z,52.1
2022-12-03T08:09:26.023Z,51.6
2022-12-03T08:11:27.915Z,49.8
2022-12-03T08:13:29.762Z,54.8
2022-12-03T08:15:39.495Z,58.6
2022-12-03T08:17:37.343Z,62.2
2022-12-03T08:19:39.234Z,53.5
2022-12-03T08:23:42.976Z,60.4
2022-12-03T08:25:44.846Z,60
2022-12-03T08:27:46.730Z,47.4
2022-12-03T08:29:51.807Z,35.6
2022-12-03T08:31:53.765Z,53.1
2022-12-03T08:33:55.524Z,53.2
2022-12-03T08:41:03.743Z,47.6
2022-12-03T08:43:08.808Z,53.5
2022-12-03T08:45:10.706Z,62.3
2022-12-03T08:47:12.584Z,41.4
2022-12-03T08:49:14.494Z,53.3
2022-12-03T08:51:16.336Z,54.8
2022-12-03T08:53:18.229Z,46
2022-12-03T08:55:20.119Z,51.3
2022-12-03T08:57:25.229Z,45.3
2022-12-03T09:05:32.735Z,25.6
2022-12-03T09:07:34.628Z,43.3
2022-12-03T09:09:36.449Z,50.3
2022-12-03T09:15:45.319Z,52.7
2022-12-03T09:17:47.187Z,47.3
2022-12-03T09:19:49.075Z,29.5
2022-12-03T09:21:50.998Z,43
2022-12-03T09:23:52.824Z,48.5
2022-12-03T09:25:57.902Z,48.9
2022-12-03T09:27:59.784Z,57.2
2022-12-03T09:30:01.673Z,28.8
2022-12-03T09:32:30.612Z,47
2022-12-03T09:34:32.423Z,52.4
2022-12-03T09:36:34.267Z,59.7
2022-12-03T09:38:44.465Z,58.5
2022-12-03T09:40:41.255Z,45
2022-12-03T09:42:43.123Z,52.8
2022-12-03T09:44:45.021Z,48.2
2022-12-03T09:46:46.877Z,53
2022-12-03T09:48:48.735Z,43.9
2022-12-03T09:50:50.599Z,55
2022-12-03T09:52:55.715Z,52.7
2022-12-03T09:54:57.940Z,38.2
2022-12-03T09:56:59.509Z,39.7
2022-12-03T09:59:01.356Z,52.5
2022-12-03T10:03:05.139Z,52.7
2022-12-03T10:05:07.030Z,54.5
2022-12-03T10:07:12.061Z,46.4
2022-12-03T10:09:13.912Z,36.3
2022-12-03T10:11:15.821Z,56.8
2022-12-03T10:13:21.021Z,57.4
2022-12-03T10:15:19.510Z,33.3
2022-12-03T10:17:21.400Z,48.3
2022-12-03T10:19:23.240Z,46.6
2022-12-03T10:21:28.380Z,47.7
2022-12-03T10:23:30.230Z,45.1
2022-12-03T10:25:32.115Z,47.7
2022-12-03T10:28:36.527Z,41.2
2022-12-03T10:30:38.470Z,41.2
2022-12-03T10:32:40.288Z,45.3
2022-12-03T10:34:45.371Z,40.8
2022-12-03T10:38:49.090Z,36.3
2022-12-03T10:40:50.987Z,38.3
2022-12-03T10:42:52.881Z,31
2022-12-03T10:53:05.439Z,39.8
2022-12-03T10:55:07.310Z,32.3
2022-12-03T10:59:11.030Z,37.2
2022-12-03T11:01:12.946Z,26.8
2022-12-03T11:03:18.027Z,40.4
2022-12-03T11:05:19.878Z,37.5
2022-12-03T11:07:21.737Z,36.1
2022-12-03T11:09:23.610Z,38.3
2022-12-03T11:11:25.472Z,27
2022-12-03T11:13:27.330Z,45
2022-12-03T11:15:29.268Z,37.7
2022-12-03T11:17:34.269Z,45
2022-12-03T11:19:36.141Z,46.8
2022-12-03T11:21:38.029Z,53.3
2022-12-03T11:28:46.222Z,45
2022-12-03T11:38:56.562Z,32.6
2022-12-03T11:45:06.943Z,34
2022-12-03T11:47:08.866Z,46.4
2022-12-03T11:55:16.228Z,55.5
2022-12-03T11:57:18.091Z,65.4
2022-12-03T11:59:23.195Z,51.1
2022-12-03T12:01:25.094Z,41.7
2022-12-03T12:03:27.075Z,51.5
2022-12-03T12:05:28.836Z,52.5
2022-12-03T12:07:30.734Z,61.5
2022-12-03T12:09:32.545Z,63.5
2022-12-03T12:11:34.438Z,56
2022-12-03T12:13:39.513Z,79.6
2022-12-03T12:15:41.383Z,67.6
2022-12-03T12:17:43.245Z,96.2
2022-12-03T12:18:45.791Z,61.4
2022-12-03T12:20:47.688Z,61.1
2022-12-03T12:26:56.484Z,84.8
2022-12-03T12:35:03.924Z,62.1
2022-12-03T12:37:05.750Z,60.9
2022-12-03T12:43:19.021Z,79.9
2022-12-03T12:45:16.438Z,63.4
2022-12-03T12:47:18.327Z,63.4
2022-12-03T12:49:20.153Z,65.2
2022-12-03T12:51:22.043Z,64.8
2022-12-03T12:53:23.875Z,57.7
2022-12-03T12:55:28.931Z,50.4
2022-12-03T12:57:30.838Z,63.4
2022-12-03T12:59:32.699Z,56.2
2022-12-03T13:01:34.799Z,59.7
2022-12-03T13:03:36.407Z,51.2
2022-12-03T13:05:38.241Z,38.9
2022-12-03T13:07:40.183Z,48.6
2022-12-03T13:09:45.219Z,47.8
2022-12-03T13:11:47.071Z,51.7
2022-12-03T13:13:48.932Z,43.7
2022-12-03T13:16:17.862Z,45.9
2022-12-03T13:18:19.659Z,49
2022-12-03T13:20:21.517Z,34.4
2022-12-03T13:22:26.560Z,48.5
2022-12-03T13:24:28.457Z,41.9
2022-12-03T13:26:38.256Z,43
2022-12-03T13:28:32.159Z,40.8
2022-12-03T13:30:34.031Z,35.1
2022-12-03T13:32:35.915Z,39.2
2022-12-03T13:34:37.754Z,56.5
2022-12-03T13:36:42.899Z,44.7
2022-12-03T13:38:44.749Z,30.9
2022-12-03T13:40:46.632Z,44.2
2022-12-03T13:42:48.456Z,40.3
2022-12-03T13:44:50.329Z,40.7
2022-12-03T13:46:52.214Z,38
2022-12-03T13:48:58.716Z,54.6
2022-12-03T13:53:00.996Z,39.4
2022-12-03T13:55:02.868Z,54.6
2022-12-03T13:57:04.726Z,35.7
2022-12-03T13:59:06.604Z,46.5
2022-12-03T14:01:08.485Z,47.9
2022-12-03T14:03:10.296Z,35.6
2022-12-03T14:05:15.388Z,30.2
2022-12-03T14:07:17.266Z,36.7
2022-12-03T14:09:19.119Z,42.2
2022-12-03T14:10:21.674Z,50.6
2022-12-03T14:12:23.517Z,47.4
2022-12-03T14:14:25.407Z,46.8
2022-12-03T14:16:27.329Z,59.7
2022-12-03T14:18:32.337Z,58.8
2022-12-03T14:20:34.190Z,58.8
2022-12-03T14:22:36.073Z,46.8
2022-12-03T14:24:37.905Z,58.2
2022-12-03T14:26:39.851Z,59.4
2022-12-03T14:28:41.676Z,59.7
2022-12-03T14:30:43.505Z,51.6
2022-12-03T14:32:48.612Z,67.3
2022-12-03T14:34:50.495Z,64.9
2022-12-03T14:36:52.359Z,59.7
2022-12-03T14:38:54.222Z,55.4
2022-12-03T14:40:56.035Z,56.1
2022-12-03T14:42:57.873Z,75.6
2022-12-03T14:44:59.818Z,65.4
2022-12-03T14:47:04.831Z,80.7
2022-12-03T14:49:06.717Z,68.1
2022-12-03T14:51:08.531Z,68.2
2022-12-03T14:53:10.393Z,56.4
2022-12-03T14:55:12.216Z,69.6
2022-12-03T14:57:14.106Z,66.7
2022-12-03T14:59:15.925Z,75.2
2022-12-03T15:01:21.104Z,81.1
2022-12-03T15:03:22.872Z,64
2022-12-03T15:05:28.450Z,75.7
2022-12-03T15:08:29.109Z,61.4
2022-12-03T15:10:30.995Z,77.3
2022-12-03T15:12:32.820Z,81.4
2022-12-03T15:14:37.886Z,79.5
2022-12-03T15:16:39.796Z,73.1
2022-12-03T15:18:41.612Z,73.9
2022-12-03T15:20:43.444Z,69.6
2022-12-03T15:22:45.323Z,71.8
2022-12-03T15:24:47.188Z,57.5
2022-12-03T15:26:49.041Z,72.3
2022-12-03T15:28:54.131Z,80.1
2022-12-03T15:30:55.957Z,85.9
2022-12-03T15:32:57.780Z,67.5
2022-12-03T15:34:59.644Z,73
2022-12-03T15:37:01.539Z,64.8
2022-12-03T15:39:03.376Z,68
2022-12-03T15:41:05.193Z,63.1
2022-12-03T15:43:10.295Z,52.3
2022-12-03T15:45:15.274Z,63.7
2022-12-03T15:47:14.027Z,74.2
2022-12-03T15:49:15.857Z,73.8
2022-12-03T15:51:17.661Z,70.2
2022-12-03T15:53:19.543Z,74.6
2022-12-03T15:55:21.471Z,71.9
2022-12-03T15:57:26.436Z,60.6
2022-12-03T15:59:28.286Z,74
2022-12-03T16:01:30.205Z,66.1
2022-12-03T16:02:32.710Z,66.9
2022-12-03T16:04:34.542Z,58.3
2022-12-03T16:06:36.384Z,70.3
2022-12-03T16:08:38.237Z,79
2022-12-03T16:10:43.310Z,73.9
2022-12-03T16:12:45.189Z,75.2
2022-12-03T16:14:47.020Z,63.4
2022-12-03T16:18:50.766Z,62.7
2022-12-03T16:20:52.666Z,69.1
2022-12-03T16:22:54.498Z,64.4
2022-12-03T16:24:59.574Z,75.4
2022-12-03T16:27:01.423Z,71.1
2022-12-03T16:29:03.274Z,61.6
2022-12-03T16:31:05.255Z,79.9
2022-12-03T16:33:07.002Z,71
2022-12-03T16:35:08.879Z,69.1
2022-12-03T16:37:10.722Z,76.5
2022-12-03T16:39:15.841Z,58.7
2022-12-03T16:41:17.694Z,62.6
2022-12-03T16:43:19.575Z,53
2022-12-03T16:45:21.408Z,66.2
2022-12-03T16:47:23.267Z,66.5
2022-12-03T16:49:25.124Z,57.9
2022-12-03T16:51:26.965Z,51.4
2022-12-03T16:53:32.063Z,63.8
2022-12-03T16:55:33.909Z,61.8
2022-12-03T16:57:35.781Z,83.4
2022-12-03T17:00:04.731Z,83.8
2022-12-03T17:02:06.582Z,76.2
2022-12-03T17:04:08.388Z,75.6
2022-12-03T17:06:13.477Z,75.7
2022-12-03T17:08:15.412Z,87.6
2022-12-03T17:10:17.222Z,66.1
2022-12-03T17:12:19.020Z,76.3
2022-12-03T17:14:20.875Z,76.9
2022-12-03T17:16:22.815Z,62.6
2022-12-03T17:18:24.610Z,55.6
2022-12-03T17:20:29.669Z,57.2
2022-12-03T17:22:31.527Z,69.1
2022-12-03T17:24:33.367Z,60.9
2022-12-03T17:26:35.223Z,67.8
2022-12-03T17:28:37.071Z,50.1
2022-12-03T17:30:38.908Z,61.8
2022-12-03T17:32:40.755Z,47.6
2022-12-03T17:34:47.396Z,75
2022-12-03T17:36:49.282Z,61.4
2022-12-03T17:38:51.082Z,59.7
2022-12-03T17:40:52.921Z,59.6
2022-12-03T17:42:54.773Z,60.5
2022-12-03T17:44:56.622Z,63.2
2022-12-03T17:46:58.505Z,60.8
2022-12-03T17:53:07.222Z,49.6
2022-12-03T17:54:09.762Z,70.5
2022-12-03T17:58:13.443Z,70.1
2022-12-03T18:00:15.268Z,67.4
2022-12-03T18:02:20.422Z,52.4
2022-12-03T18:04:22.287Z,67.7
2022-12-03T18:06:24.029Z,63.9
2022-12-03T18:08:25.878Z,53.4
2022-12-03T18:10:27.733Z,61.6
2022-12-03T18:12:29.563Z,66.6
2022-12-03T18:14:31.435Z,58.6
2022-12-03T18:16:36.592Z,67.1
2022-12-03T18:18:38.389Z,58.7
2022-12-03T18:20:40.225Z,64.1
2022-12-03T18:22:42.116Z,63.4
2022-12-03T18:24:46.122Z,61.2
2022-12-03T18:26:45.766Z,69.3
2022-12-03T18:28:47.592Z,69.6
2022-12-03T18:30:53.044Z,58.5
2022-12-03T18:32:54.515Z,50.2
2022-12-03T18:34:56.647Z,45.1
2022-12-03T18:36:58.198Z,49.2
2022-12-03T18:39:00.090Z,51.7
2022-12-03T18:41:01.870Z,56
2022-12-03T18:43:03.734Z,55.8
2022-12-03T18:45:08.786Z,60.5
2022-12-03T18:47:10.719Z,54.4
2022-12-03T18:49:12.522Z,61.2
2022-12-03T18:50:15.017Z,57.8
2022-12-03T18:52:16.870Z,61.7
2022-12-03T18:54:18.692Z,52.4
2022-12-03T18:56:20.546Z,56.5
2022-12-03T18:58:25.630Z,60.3
2022-12-03T19:03:01.031Z,57.4
2022-12-03T19:04:31.197Z,50.5
2022-12-03T19:06:33.059Z,54.7
2022-12-03T19:08:34.876Z,53.8
2022-12-03T19:10:36.742Z,56.8
2022-12-03T19:14:43.671Z,58.2
2022-12-03T19:16:45.607Z,46.9
2022-12-03T19:18:47.371Z,56.5
2022-12-03T19:20:49.218Z,50.8
2022-12-03T19:22:51.061Z,62.3
2022-12-03T19:24:53.081Z,56.5
2022-12-03T19:26:57.950Z,53.2
2022-12-03T19:28:59.773Z,45.5
2022-12-03T19:31:01.717Z,55
2022-12-03T19:33:03.481Z,63.8
2022-12-03T19:35:05.464Z,59.7
2022-12-03T19:37:07.179Z,50.7
2022-12-03T19:39:09.006Z,58
2022-12-03T19:41:14.086Z,66.1
2022-12-03T19:43:15.934Z,68.3
2022-12-03T19:45:17.758Z,53.7
2022-12-03T19:46:20.339Z,58.9
2022-12-03T19:48:22.142Z,47.2
2022-12-03T19:50:24.017Z,64.6
2022-12-03T19:52:25.841Z,68.6
2022-12-03T19:54:30.882Z,51.1
2022-12-03T19:56:32.730Z,54.9
2022-12-03T19:58:34.583Z,56.7
2022-12-03T20:00:36.553Z,62.2
2022-12-03T20:02:38.297Z,58.6
2022-12-03T20:04:40.078Z,60
2022-12-03T20:06:41.957Z,59.1
2022-12-03T20:08:46.987Z,59.9
2022-12-03T20:10:48.828Z,63.4
2022-12-03T20:12:50.622Z,61.8
2022-12-03T20:14:52.482Z,43.5
2022-12-03T20:16:54.351Z,57.7
2022-12-03T20:20:58.132Z,50.4
2022-12-03T20:23:03.069Z,56.9
2022-12-03T20:25:04.892Z,69.9
2022-12-03T20:27:06.730Z,61.4
2022-12-03T20:29:08.607Z,54
2022-12-03T20:31:10.408Z,58.6
2022-12-03T20:33:12.241Z,52.7
2022-12-03T20:35:14.085Z,55.7
2022-12-03T20:37:19.143Z,56.1
2022-12-03T20:39:21.015Z,60
2022-12-03T20:41:22.854Z,52.8
2022-12-03T20:43:51.716Z,49
2022-12-03T20:45:58.048Z,50.3
2022-12-03T20:47:55.406Z,57.9
2022-12-03T20:50:00.498Z,64.5
2022-12-03T20:54:04.189Z,65
2022-12-03T20:58:07.840Z,44.2
2022-12-03T21:00:09.693Z,57.3
2022-12-03T21:02:11.802Z,66.9
2022-12-03T21:04:16.592Z,70.4
2022-12-03T21:06:18.428Z,70.7
2022-12-03T21:08:39.715Z,52.6
2022-12-03T21:10:22.146Z,51.8
2022-12-03T21:12:23.981Z,64
2022-12-03T21:14:25.809Z,58.5
2022-12-03T21:16:51.907Z,59.5
2022-12-03T21:22:36.385Z,58.2
2022-12-03T21:24:38.247Z,61.8
2022-12-03T21:26:40.050Z,63.3
2022-12-03T21:30:43.806Z,66.9
2022-12-03T21:32:48.777Z,60.8
2022-12-03T21:34:50.589Z,62.9
2022-12-03T21:36:52.472Z,76.9
2022-12-03T21:37:55.014Z,59.5
2022-12-03T21:39:57.158Z,60.5
2022-12-03T21:42:35.504Z,64.2
2022-12-03T21:44:00.495Z,76.9
2022-12-03T21:46:05.675Z,62.5
2022-12-03T21:48:07.594Z,67.4
2022-12-03T21:50:09.266Z,65.6
2022-12-03T21:52:11.100Z,88.3
2022-12-03T21:54:12.942Z,64.1
2022-12-03T21:56:14.765Z,66.5
2022-12-03T21:58:16.590Z,77.5
2022-12-03T22:00:21.681Z,64.6
2022-12-03T22:02:23.597Z,61.2
2022-12-03T22:04:25.367Z,57.5
2022-12-03T22:06:27.190Z,63.6
2022-12-03T22:08:29.053Z,66
2022-12-03T22:10:30.844Z,72.1
2022-12-03T22:12:32.686Z,55.3
2022-12-03T22:14:37.766Z,81
2022-12-03T22:16:39.669Z,52.6
2022-12-03T22:18:41.483Z,70.3
2022-12-03T22:20:43.301Z,81.2
2022-12-03T22:26:48.830Z,70
2022-12-03T22:28:53.875Z,80.7
2022-12-03T22:30:55.756Z,67.2
2022-12-03T22:32:57.547Z,74
2022-12-03T22:34:00.114Z,67.3
2022-12-03T22:36:01.914Z,75
2022-12-03T22:38:03.764Z,63.1
2022-12-03T22:40:05.591Z,70
2022-12-03T22:42:10.657Z,74.6
2022-12-03T22:44:12.497Z,61.3
2022-12-03T22:46:14.447Z,81
2022-12-03T22:48:16.197Z,88.3
2022-12-03T22:50:18.041Z,77.2
2022-12-03T22:52:19.865Z,64.3
2022-12-03T22:54:24.186Z,60.6
2022-12-03T22:56:26.797Z,70.6
2022-12-03T22:58:28.663Z,62.4
2022-12-03T23:00:30.605Z,85.5
2022-12-03T23:02:32.487Z,74.8
2022-12-03T23:04:34.203Z,80.5
2022-12-03T23:06:36.021Z,63
2022-12-03T23:08:37.856Z,65.5
2022-12-03T23:10:42.901Z,69.4
2022-12-03T23:12:44.754Z,65.5
2022-12-03T23:14:46.609Z,65.8
2022-12-03T23:16:48.427Z,64
2022-12-03T23:18:50.309Z,72
2022-12-03T23:20:52.131Z,70
2022-12-03T23:22:53.951Z,71.6
2022-12-03T23:25:00.617Z,70.1
2022-12-03T23:27:02.441Z,70.8
2022-12-03T23:29:04.264Z,63
2022-12-03T23:30:06.784Z,95.3
2022-12-03T23:32:08.624Z,72
2022-12-03T23:34:10.507Z,55
2022-12-03T23:36:12.275Z,91.2
2022-12-03T23:38:17.357Z,67
2022-12-03T23:40:19.205Z,72.2
2022-12-03T23:42:21.031Z,82.6
2022-12-03T23:46:24.793Z,68.8
2022-12-03T23:48:26.586Z,67.3
2022-12-03T23:50:28.408Z,73.3
2022-12-03T23:56:37.165Z,81.8
